createdAt,value
2018-10-07T00:02:36.944Z,86.40
2018-10-07T00:07:40.378Z,87.90
2018-10-07T00:12:43.834Z,88.30
2018-10-07T00:17:47.246Z,89.10
2018-10-07T00:22:50.967Z,90.00
2018-10-07T00:27:54.428Z,89.40
2018-10-07T00:32:57.881Z,89.70
2018-10-07T00:38:01.401Z,89.80
2018-10-07T00:43:05.157Z,89.80
2018-10-07T00:48:08.869Z,90.10
2018-10-07T00:53:12.483Z,90.70
2018-10-07T00:58:16.108Z,91.00
2018-10-07T01:03:19.536Z,91.20
2018-10-07T01:08:22.945Z,91.20
2018-10-07T01:13:26.441Z,90.50
2018-10-07T01:18:29.860Z,90.00
2018-10-07T01:23:33.349Z,89.60
2018-10-07T01:28:36.762Z,88.70
2018-10-07T01:33:40.252Z,89.90
2018-10-07T01:38:43.824Z,89.20
2018-10-07T01:43:47.379Z,89.10
2018-10-07T01:48:50.800Z,89.50
2018-10-07T01:53:54.435Z,88.90
2018-10-07T01:58:57.796Z,87.10
2018-10-07T02:04:01.184Z,88.40
2018-10-07T02:09:07.975Z,88.90
2018-10-07T02:14:11.385Z,88.50
2018-10-07T02:19:14.828Z,88.70
2018-10-07T02:24:18.693Z,90.10
2018-10-07T02:29:22.151Z,88.70
2018-10-07T02:34:25.824Z,88.40
2018-10-07T02:39:33.758Z,88.40
2018-10-07T02:44:37.851Z,89.60
2018-10-07T02:49:45.873Z,88.90
2018-10-07T02:54:53.885Z,89.40
2018-10-07T02:59:57.408Z,88.50
2018-10-07T03:05:01.988Z,88.90
2018-10-07T03:10:05.442Z,88.80
2018-10-07T03:15:09.072Z,89.50
2018-10-07T03:20:12.491Z,89.00
2018-10-07T03:25:16.052Z,88.90
2018-10-07T03:30:19.759Z,88.30
2018-10-07T03:35:23.351Z,88.30
2018-10-07T03:40:26.709Z,87.90
2018-10-07T03:45:30.247Z,88.50
2018-10-07T03:50:33.702Z,90.20
2018-10-07T03:55:37.300Z,87.90
2018-10-07T04:00:41.078Z,87.50
2018-10-07T04:05:44.670Z,87.50
2018-10-07T04:10:48.130Z,87.10
2018-10-07T04:15:51.597Z,87.30
2018-10-07T04:20:55.161Z,88.10
2018-10-07T04:25:58.802Z,86.40
2018-10-07T04:31:02.149Z,86.90
2018-10-07T04:36:05.614Z,87.10
2018-10-07T04:41:09.055Z,86.70
2018-10-07T04:46:12.428Z,86.60
2018-10-07T04:51:15.783Z,86.20
2018-10-07T04:56:19.184Z,85.60
2018-10-07T05:01:22.909Z,85.50
2018-10-07T05:06:30.369Z,85.70
2018-10-07T05:11:34.148Z,85.30
2018-10-07T05:16:50.134Z,84.80
2018-10-07T05:21:53.524Z,84.20
2018-10-07T05:26:56.973Z,85.40
2018-10-07T05:32:00.360Z,85.80
2018-10-07T05:37:03.863Z,85.20
2018-10-07T05:42:07.276Z,84.90
2018-10-07T05:47:10.787Z,85.40
2018-10-07T05:52:14.242Z,85.40
2018-10-07T05:57:18.516Z,85.60
2018-10-07T06:02:22.177Z,86.00
2018-10-07T06:07:27.029Z,85.40
2018-10-07T06:12:30.499Z,84.90
2018-10-07T06:17:33.986Z,84.50
2018-10-07T06:22:37.582Z,84.40
2018-10-07T06:27:40.995Z,84.60
2018-10-07T06:32:44.581Z,84.10
2018-10-07T06:37:48.187Z,84.20
2018-10-07T06:42:51.988Z,84.30
2018-10-07T06:47:55.808Z,84.50
2018-10-07T06:52:59.288Z,82.70
2018-10-07T06:58:02.661Z,82.30
2018-10-07T07:03:06.154Z,82.00
2018-10-07T07:08:09.695Z,80.80
2018-10-07T07:13:13.253Z,81.30
2018-10-07T07:18:16.729Z,81.10
2018-10-07T07:23:20.162Z,80.10
2018-10-07T07:28:23.877Z,79.80
2018-10-07T07:33:27.312Z,78.70
2018-10-07T07:38:30.671Z,77.80
2018-10-07T07:43:34.161Z,77.00
2018-10-07T07:48:37.670Z,75.80
2018-10-07T07:53:41.380Z,73.30
2018-10-07T07:58:44.709Z,72.40
2018-10-07T08:03:48.115Z,72.20
2018-10-07T08:08:51.515Z,73.50
2018-10-07T08:13:55.051Z,73.00
2018-10-07T08:18:58.410Z,69.20
2018-10-07T08:24:02.034Z,70.30
2018-10-07T08:29:05.659Z,68.60
2018-10-07T08:34:09.215Z,68.50
2018-10-07T08:39:14.089Z,67.40
2018-10-07T08:44:17.576Z,66.00
2018-10-07T08:49:21.254Z,66.20
2018-10-07T08:54:24.827Z,65.20
2018-10-07T08:59:28.186Z,63.30
2018-10-07T09:04:32.711Z,63.10
2018-10-07T09:09:36.144Z,62.10
2018-10-07T09:14:39.734Z,62.50
2018-10-07T09:19:43.236Z,61.00
2018-10-07T09:24:46.617Z,60.60
2018-10-07T09:29:50.613Z,60.00
2018-10-07T09:34:54.180Z,60.80
2018-10-07T09:39:57.802Z,60.30
2018-10-07T09:45:01.247Z,61.20
2018-10-07T09:50:05.223Z,58.80
2018-10-07T09:55:08.842Z,57.40
2018-10-07T10:00:12.364Z,55.70
2018-10-07T10:05:17.067Z,54.80
2018-10-07T10:10:20.524Z,55.80
2018-10-07T10:15:26.215Z,54.60
2018-10-07T10:21:51.777Z,54.00
2018-10-07T10:27:03.321Z,53.60
2018-10-07T10:32:14.592Z,52.80
2018-10-07T10:37:31.100Z,51.90
2018-10-07T10:42:46.608Z,52.00
2018-10-07T10:47:52.193Z,48.70
2018-10-07T10:53:14.331Z,48.90
2018-10-07T10:58:33.819Z,47.00
2018-10-07T11:04:14.158Z,45.60
2018-10-07T11:11:38.512Z,46.30
2018-10-07T11:18:58.213Z,47.50
2018-10-07T11:24:14.217Z,49.60
2018-10-07T11:29:35.431Z,48.70
2018-10-07T11:37:00.846Z,47.20
2018-10-07T11:42:14.199Z,45.90
2018-10-07T11:49:30.568Z,47.30
2018-10-07T11:55:02.557Z,48.90
2018-10-07T12:00:06.052Z,47.90
2018-10-07T12:05:10.068Z,48.80
2018-10-07T12:10:13.536Z,49.10
2018-10-07T12:15:17.161Z,48.90
2018-10-07T12:20:20.768Z,49.80
2018-10-07T12:25:27.653Z,50.30
2018-10-07T12:30:31.210Z,49.20
2018-10-07T12:35:39.116Z,48.30
2018-10-07T12:40:42.456Z,48.70
2018-10-07T12:45:45.888Z,46.70
2018-10-07T12:50:49.333Z,49.20
2018-10-07T12:55:52.983Z,50.50
2018-10-07T13:00:57.453Z,50.70
2018-10-07T13:06:00.893Z,50.70
2018-10-07T13:11:04.434Z,50.00
2018-10-07T13:16:08.429Z,50.20
2018-10-07T13:21:11.832Z,50.80
2018-10-07T13:26:15.184Z,50.90
2018-10-07T13:31:18.824Z,49.70
2018-10-07T13:36:22.265Z,49.50
2018-10-07T13:41:25.683Z,49.60
2018-10-07T13:46:29.101Z,50.70
2018-10-07T13:51:32.445Z,51.40
2018-10-07T13:56:36.000Z,51.50
2018-10-07T14:01:39.543Z,51.10
2018-10-07T14:06:43.176Z,51.00
2018-10-07T14:11:46.620Z,51.80
2018-10-07T14:16:50.019Z,53.00
2018-10-07T14:21:53.380Z,53.50
2018-10-07T14:26:56.798Z,53.80
2018-10-07T14:32:00.231Z,53.80
2018-10-07T14:37:03.970Z,53.90
2018-10-07T14:42:07.505Z,54.30
2018-10-07T14:47:10.918Z,54.50
2018-10-07T14:52:14.277Z,54.90
2018-10-07T14:57:17.924Z,54.40
2018-10-07T15:02:21.534Z,54.40
2018-10-07T15:07:24.925Z,55.00
2018-10-07T15:12:28.647Z,55.60
2018-10-07T15:17:32.230Z,54.80
2018-10-07T15:22:35.681Z,54.80
2018-10-07T15:27:39.325Z,54.50
2018-10-07T15:32:42.799Z,55.60
2018-10-07T15:37:46.421Z,55.70
2018-10-07T15:42:49.888Z,55.00
2018-10-07T15:47:53.519Z,55.70
2018-10-07T15:52:57.151Z,56.00
2018-10-07T15:58:00.523Z,56.50
2018-10-07T16:03:03.991Z,57.40
2018-10-07T16:08:07.674Z,57.50
2018-10-07T16:13:11.054Z,57.80
2018-10-07T16:18:14.520Z,57.50
2018-10-07T16:23:18.076Z,58.10
2018-10-07T16:28:21.704Z,58.70
2018-10-07T16:33:25.323Z,59.20
2018-10-07T16:38:28.724Z,59.80
2018-10-07T16:43:32.207Z,59.90
2018-10-07T16:48:35.685Z,60.10
2018-10-07T16:53:39.145Z,60.70
2018-10-07T16:58:42.494Z,61.40
2018-10-07T17:03:45.883Z,62.10
2018-10-07T17:08:49.292Z,62.80
2018-10-07T17:13:52.624Z,63.80
2018-10-07T17:18:56.048Z,63.90
2018-10-07T17:23:59.690Z,64.70
2018-10-07T17:29:03.190Z,65.20
2018-10-07T17:34:06.613Z,66.10
2018-10-07T17:39:11.443Z,67.10
2018-10-07T17:44:14.881Z,68.00
2018-10-07T17:49:18.480Z,69.10
2018-10-07T17:54:22.095Z,69.70
2018-10-07T17:59:25.504Z,70.00
2018-10-07T18:04:29.160Z,70.30
2018-10-07T18:09:32.651Z,71.00
2018-10-07T18:14:36.107Z,71.40
2018-10-07T18:19:39.881Z,71.70
2018-10-07T18:24:43.663Z,72.00
2018-10-07T18:29:47.211Z,72.30
2018-10-07T18:34:50.778Z,72.80
2018-10-07T18:39:54.260Z,72.80
2018-10-07T18:44:57.894Z,72.80
2018-10-07T18:50:01.392Z,73.10
2018-10-07T18:55:04.960Z,74.50
2018-10-07T19:00:10.533Z,75.30
2018-10-07T19:05:14.040Z,76.50
2018-10-07T19:10:17.405Z,76.20
2018-10-07T19:15:20.888Z,76.70
2018-10-07T19:20:24.479Z,76.00
2018-10-07T19:25:28.034Z,76.70
2018-10-07T19:30:31.534Z,77.20
2018-10-07T19:35:35.352Z,77.60
2018-10-07T19:40:38.815Z,77.80
2018-10-07T19:45:42.598Z,78.30
2018-10-07T19:50:45.980Z,78.10
2018-10-07T19:55:49.616Z,77.80
2018-10-07T20:00:53.962Z,78.10
2018-10-07T20:05:57.577Z,78.30
2018-10-07T20:11:01.115Z,78.30
2018-10-07T20:16:04.854Z,78.40
2018-10-07T20:21:08.427Z,79.00
2018-10-07T20:26:12.183Z,78.90
2018-10-07T20:31:15.752Z,78.90
2018-10-07T20:36:19.191Z,78.80
2018-10-07T20:41:22.728Z,78.70
2018-10-07T20:46:26.166Z,78.80
2018-10-07T20:51:29.771Z,78.80
2018-10-07T20:56:33.128Z,78.60
2018-10-07T21:01:36.674Z,78.80
2018-10-07T21:06:40.121Z,78.80
2018-10-07T21:11:43.482Z,78.90
2018-10-07T21:16:46.952Z,79.10
2018-10-07T21:21:50.316Z,79.40
2018-10-07T21:26:53.744Z,79.30
2018-10-07T21:31:57.143Z,79.10
2018-10-07T21:37:00.532Z,79.20
2018-10-07T21:42:03.971Z,79.60
2018-10-07T21:47:07.376Z,80.10
2018-10-07T21:52:10.788Z,80.90
2018-10-07T21:57:14.308Z,80.90
2018-10-07T22:02:17.685Z,80.90
2018-10-07T22:07:22.213Z,79.20
2018-10-07T22:12:25.575Z,79.80
2018-10-07T22:17:29.260Z,80.50
2018-10-07T22:22:32.804Z,80.90
2018-10-07T22:27:36.231Z,80.90
2018-10-07T22:32:39.677Z,81.30
2018-10-07T22:37:43.026Z,81.30
2018-10-07T22:42:46.529Z,81.80
2018-10-07T22:47:50.145Z,82.00
2018-10-07T22:52:53.564Z,81.50
2018-10-07T22:57:56.962Z,82.10
2018-10-07T23:03:00.345Z,81.00
2018-10-07T23:08:04.029Z,81.00
2018-10-07T23:13:07.586Z,80.90
2018-10-07T23:18:11.153Z,81.10
2018-10-07T23:23:14.624Z,81.20
2018-10-07T23:28:18.284Z,81.10
2018-10-07T23:33:21.846Z,81.50
2018-10-07T23:38:25.626Z,81.50
2018-10-07T23:43:29.033Z,81.80
2018-10-07T23:48:32.451Z,82.30
2018-10-07T23:53:35.938Z,82.00
2018-10-07T23:58:39.407Z,81.90
